createdAt,value
2018-07-15T00:00:59.247Z,17.10
2018-07-15T00:03:27.718Z,17.10
2018-07-15T00:05:56.188Z,17.00
2018-07-15T00:08:25.039Z,17.00
2018-07-15T00:10:53.482Z,17.00
2018-07-15T00:13:21.967Z,17.00
2018-07-15T00:15:50.412Z,17.00
2018-07-15T00:18:19.169Z,16.90
2018-07-15T00:23:15.843Z,16.90
2018-07-15T00:25:44.304Z,16.90
2018-07-15T00:28:12.764Z,16.80
2018-07-15T00:30:41.240Z,16.70
2018-07-15T00:33:09.734Z,16.70
2018-07-15T00:35:38.164Z,16.70
2018-07-15T00:38:06.938Z,16.70
2018-07-15T00:40:35.628Z,16.70
2018-07-15T00:43:04.431Z,16.70
2018-07-15T00:45:32.902Z,16.60
2018-07-15T00:48:01.337Z,16.60
2018-07-15T00:50:30.181Z,16.50
2018-07-15T00:52:59.518Z,16.50
2018-07-15T00:55:27.984Z,16.50
2018-07-15T00:57:56.422Z,16.40
2018-07-15T01:00:30.195Z,16.40
2018-07-15T01:02:58.639Z,16.40
2018-07-15T01:05:27.106Z,16.40
2018-07-15T01:07:55.539Z,16.40
2018-07-15T01:10:24.039Z,16.30
2018-07-15T01:12:52.851Z,16.30
2018-07-15T01:15:21.340Z,16.30
2018-07-15T01:17:50.139Z,16.20
2018-07-15T01:20:18.640Z,16.20
2018-07-15T01:22:47.088Z,16.20
2018-07-15T01:25:15.588Z,16.20
2018-07-15T01:27:44.021Z,16.20
2018-07-15T01:30:12.852Z,16.20
2018-07-15T01:32:41.289Z,16.20
2018-07-15T01:35:09.768Z,16.20
2018-07-15T01:37:38.218Z,16.20
2018-07-15T01:40:06.956Z,16.20
2018-07-15T01:42:35.395Z,16.10
2018-07-15T01:45:03.897Z,16.10
2018-07-15T01:47:32.342Z,16.10
2018-07-15T01:50:00.831Z,16.10
2018-07-15T01:52:29.276Z,16.00
2018-07-15T01:54:57.787Z,16.00
2018-07-15T01:57:26.231Z,16.00
2018-07-15T01:59:54.713Z,15.90
2018-07-15T02:02:23.226Z,15.90
2018-07-15T02:04:51.698Z,15.90
2018-07-15T02:07:20.133Z,15.90
2018-07-15T02:09:48.609Z,16.00
2018-07-15T02:12:17.100Z,16.00
2018-07-15T02:14:45.629Z,16.00
2018-07-15T02:17:14.076Z,16.00
2018-07-15T02:19:42.811Z,16.00
2018-07-15T02:22:11.304Z,16.00
2018-07-15T02:24:39.807Z,16.00
2018-07-15T02:27:08.411Z,16.00
2018-07-15T02:29:36.892Z,16.10
2018-07-15T02:32:05.392Z,16.10
2018-07-15T02:34:33.880Z,16.10
2018-07-15T02:37:02.332Z,16.00
2018-07-15T02:39:30.779Z,16.00
2018-07-15T02:41:59.260Z,16.10
2018-07-15T02:44:27.729Z,16.00
2018-07-15T02:46:56.196Z,16.00
2018-07-15T02:49:24.636Z,16.00
2018-07-15T02:51:53.696Z,16.00
2018-07-15T02:54:22.160Z,16.00
2018-07-15T02:56:50.661Z,16.00
2018-07-15T02:59:19.096Z,16.00
2018-07-15T03:01:47.584Z,16.00
2018-07-15T03:04:16.017Z,16.00
2018-07-15T03:06:44.491Z,16.00
2018-07-15T03:09:12.991Z,16.00
2018-07-15T03:11:41.452Z,16.00
2018-07-15T03:14:09.898Z,16.00
2018-07-15T03:16:38.718Z,15.90
2018-07-15T03:19:07.141Z,15.90
2018-07-15T03:21:35.648Z,15.90
2018-07-15T03:24:04.124Z,15.90
2018-07-15T03:26:32.954Z,15.80
2018-07-15T03:29:01.388Z,15.80
2018-07-15T03:31:29.859Z,15.80
2018-07-15T03:33:58.290Z,15.80
2018-07-15T03:36:26.796Z,15.80
2018-07-15T03:38:55.245Z,15.70
2018-07-15T03:41:23.732Z,15.80
2018-07-15T03:43:52.169Z,15.70
2018-07-15T03:46:20.815Z,15.70
2018-07-15T03:48:49.240Z,15.70
2018-07-15T03:51:17.709Z,15.70
2018-07-15T03:53:46.164Z,15.70
2018-07-15T03:56:14.612Z,15.70
2018-07-15T03:58:43.093Z,15.70
2018-07-15T04:01:11.548Z,15.70
2018-07-15T04:03:40.340Z,15.60
2018-07-15T04:06:08.799Z,15.60
2018-07-15T04:08:37.295Z,15.60
2018-07-15T04:11:05.887Z,15.60
2018-07-15T04:13:34.393Z,15.70
2018-07-15T04:16:02.825Z,15.70
2018-07-15T04:18:31.291Z,15.70
2018-07-15T04:20:59.783Z,15.70
2018-07-15T04:23:28.264Z,15.70
2018-07-15T04:25:56.711Z,15.80
2018-07-15T04:28:25.250Z,15.80
2018-07-15T04:30:53.814Z,15.80
2018-07-15T04:33:22.302Z,15.80
2018-07-15T04:35:50.740Z,15.90
2018-07-15T04:38:19.228Z,16.00
2018-07-15T04:40:47.673Z,16.00
2018-07-15T04:43:16.156Z,16.10
2018-07-15T04:45:44.780Z,16.10
2018-07-15T04:48:13.235Z,16.10
2018-07-15T04:50:41.677Z,16.20
2018-07-15T04:53:10.136Z,16.20
2018-07-15T04:55:38.567Z,16.20
2018-07-15T04:58:07.412Z,16.30
2018-07-15T05:00:35.864Z,16.30
2018-07-15T05:03:04.346Z,16.30
2018-07-15T05:05:32.771Z,16.40
2018-07-15T05:08:01.245Z,16.40
2018-07-15T05:10:29.731Z,16.40
2018-07-15T05:12:58.201Z,16.40
2018-07-15T05:15:26.631Z,16.50
2018-07-15T05:17:55.554Z,16.50
2018-07-15T05:20:24.370Z,16.70
2018-07-15T05:22:52.832Z,16.80
2018-07-15T05:25:21.302Z,17.00
2018-07-15T05:27:49.746Z,17.10
2018-07-15T05:30:18.232Z,17.20
2018-07-15T05:32:46.691Z,17.30
2018-07-15T05:35:15.179Z,17.40
2018-07-15T05:40:11.800Z,17.70
2018-07-15T05:42:40.255Z,17.70
2018-07-15T05:45:08.729Z,17.80
2018-07-15T05:47:37.181Z,17.90
2018-07-15T05:50:05.686Z,18.00
2018-07-15T05:52:34.164Z,18.00
2018-07-15T05:55:02.646Z,18.10
2018-07-15T05:57:31.276Z,18.20
2018-07-15T06:00:02.928Z,18.30
2018-07-15T06:02:34.993Z,18.40
2018-07-15T06:05:05.776Z,18.50
2018-07-15T06:07:34.227Z,18.60
2018-07-15T06:10:02.704Z,18.70
2018-07-15T06:12:31.185Z,18.80
2018-07-15T06:14:59.667Z,18.90
2018-07-15T06:17:28.180Z,19.10
2018-07-15T06:19:56.678Z,19.20
2018-07-15T06:22:25.120Z,19.40
2018-07-15T06:24:53.952Z,19.50
2018-07-15T06:27:22.387Z,19.60
2018-07-15T06:29:50.855Z,19.70
2018-07-15T06:32:19.299Z,19.90
2018-07-15T06:34:47.829Z,20.00
2018-07-15T06:37:16.267Z,20.10
2018-07-15T06:39:44.735Z,20.20
2018-07-15T06:42:13.562Z,20.30
2018-07-15T06:44:42.011Z,20.50
2018-07-15T06:47:10.479Z,20.60
2018-07-15T06:49:38.915Z,20.70
2018-07-15T06:52:07.383Z,20.90
2018-07-15T06:57:04.052Z,21.10
2018-07-15T06:59:32.501Z,21.20
2018-07-15T07:02:01.000Z,21.40
2018-07-15T07:04:29.431Z,21.70
2018-07-15T07:06:57.916Z,21.80
2018-07-15T07:09:26.344Z,21.90
2018-07-15T07:11:54.779Z,22.00
2018-07-15T07:14:23.250Z,22.20
2018-07-15T07:16:51.677Z,22.20
2018-07-15T07:19:20.212Z,22.30
2018-07-15T07:21:48.642Z,22.40
2018-07-15T07:24:17.280Z,22.50
2018-07-15T07:26:45.723Z,22.70
2018-07-15T07:29:14.264Z,22.80
2018-07-15T07:31:43.092Z,22.90
2018-07-15T07:34:11.580Z,23.10
2018-07-15T07:36:40.041Z,23.10
2018-07-15T07:39:08.920Z,23.20
2018-07-15T07:41:37.376Z,23.30
2018-07-15T07:44:05.875Z,23.30
2018-07-15T07:46:34.311Z,23.50
2018-07-15T07:49:02.784Z,23.60
2018-07-15T07:51:31.216Z,23.70
2018-07-15T07:56:28.378Z,23.80
2018-07-15T08:01:25.510Z,24.10
2018-07-15T08:03:54.554Z,24.30
2018-07-15T08:06:23.552Z,24.50
2018-07-15T08:08:52.566Z,24.70
2018-07-15T08:11:21.541Z,24.90
2018-07-15T08:13:50.691Z,25.10
2018-07-15T08:16:19.794Z,25.20
2018-07-15T08:18:48.819Z,25.20
2018-07-15T08:21:17.835Z,25.40
2018-07-15T08:23:46.854Z,25.50
2018-07-15T08:26:15.863Z,25.60
2018-07-15T08:28:44.885Z,25.70
2018-07-15T08:31:17.199Z,25.80
2018-07-15T08:33:46.266Z,26.00
2018-07-15T08:36:15.270Z,26.10
2018-07-15T08:38:44.279Z,26.20
2018-07-15T08:41:13.282Z,26.30
2018-07-15T08:43:42.291Z,26.40
2018-07-15T08:46:11.343Z,26.50
2018-07-15T08:48:40.508Z,26.50
2018-07-15T08:51:09.492Z,26.60
2018-07-15T08:53:38.535Z,26.70
2018-07-15T08:56:07.830Z,26.90
2018-07-15T09:01:05.586Z,27.10
2018-07-15T09:03:34.804Z,27.10
2018-07-15T09:06:03.837Z,27.20
2018-07-15T09:08:32.875Z,27.30
2018-07-15T09:11:01.911Z,27.40
2018-07-15T09:13:30.953Z,27.80
2018-07-15T09:15:59.965Z,28.10
2018-07-15T09:18:29.539Z,28.20
2018-07-15T09:20:58.596Z,28.30
2018-07-15T09:23:27.574Z,28.70
2018-07-15T09:25:56.595Z,28.80
2018-07-15T09:28:25.591Z,28.50
2018-07-15T09:30:54.626Z,28.20
2018-07-15T09:33:23.671Z,28.30
2018-07-15T09:35:52.689Z,28.50
2018-07-15T09:38:21.680Z,28.50
2018-07-15T09:40:50.725Z,28.50
2018-07-15T09:45:48.472Z,29.10
2018-07-15T09:48:17.446Z,29.30
2018-07-15T09:50:46.614Z,29.40
2018-07-15T09:53:15.596Z,29.30
2018-07-15T09:55:44.620Z,29.30
2018-07-15T09:58:13.753Z,29.40
2018-07-15T10:00:48.334Z,29.40
2018-07-15T10:03:17.357Z,29.60
2018-07-15T10:05:46.397Z,29.80
2018-07-15T10:08:15.416Z,30.00
2018-07-15T10:10:44.484Z,30.20
2018-07-15T10:13:13.520Z,30.10
2018-07-15T10:15:42.567Z,30.20
2018-07-15T10:18:11.541Z,30.40
2018-07-15T10:20:40.976Z,30.40
2018-07-15T10:23:09.973Z,30.70
2018-07-15T10:25:39.002Z,30.60
2018-07-15T10:28:08.019Z,30.40
2018-07-15T10:30:37.041Z,30.50
2018-07-15T10:33:06.038Z,30.60
2018-07-15T10:35:45.546Z,30.80
2018-07-15T10:38:14.663Z,31.00
2018-07-15T10:40:43.707Z,31.10
2018-07-15T10:43:12.694Z,31.10
2018-07-15T10:45:41.760Z,31.20
2018-07-15T10:48:11.095Z,31.20
2018-07-15T10:50:40.119Z,31.40
2018-07-15T10:53:09.171Z,31.60
2018-07-15T10:55:38.232Z,31.80
2018-07-15T10:58:07.232Z,31.70
2018-07-15T11:03:04.926Z,30.90
2018-07-15T11:05:34.128Z,30.50
2018-07-15T11:08:03.472Z,30.30
2018-07-15T11:10:32.515Z,30.50
2018-07-15T11:13:01.526Z,30.60
2018-07-15T11:15:30.518Z,30.80
2018-07-15T11:17:59.692Z,30.90
2018-07-15T11:20:28.913Z,31.10
2018-07-15T11:22:57.955Z,31.40
2018-07-15T11:27:55.664Z,31.60
2018-07-15T11:30:24.724Z,31.80
2018-07-15T11:32:53.706Z,31.80
2018-07-15T11:35:22.704Z,32.00
2018-07-15T11:37:51.739Z,32.30
2018-07-15T11:40:20.768Z,32.30
2018-07-15T11:42:49.843Z,32.20
2018-07-15T11:45:18.836Z,32.30
2018-07-15T11:47:47.850Z,31.80
2018-07-15T11:50:16.870Z,31.40
2018-07-15T11:52:45.868Z,31.20
2018-07-15T11:55:14.869Z,30.90
2018-07-15T11:57:43.892Z,30.80
2018-07-15T12:00:12.862Z,30.60
2018-07-15T12:02:41.867Z,30.40
2018-07-15T12:05:10.854Z,30.20
2018-07-15T12:07:39.874Z,29.90
2018-07-15T12:10:08.905Z,29.60
2018-07-15T12:12:37.946Z,29.50
2018-07-15T12:15:07.284Z,29.40
2018-07-15T12:20:05.140Z,29.40
2018-07-15T12:22:34.164Z,29.40
2018-07-15T12:25:03.159Z,29.40
2018-07-15T12:27:32.159Z,29.40
2018-07-15T12:30:01.145Z,29.40
2018-07-15T12:32:30.171Z,29.30
2018-07-15T12:34:59.141Z,29.10
2018-07-15T12:37:28.164Z,28.90
2018-07-15T12:39:57.138Z,28.80
2018-07-15T12:42:26.179Z,28.60
2018-07-15T12:44:55.551Z,28.40
2018-07-15T12:47:24.608Z,27.80
2018-07-15T12:49:53.627Z,26.50
2018-07-15T12:52:23.019Z,25.00
2018-07-15T12:54:52.015Z,23.80
2018-07-15T12:57:21.136Z,23.10
2018-07-15T12:59:50.149Z,22.50
2018-07-15T13:02:19.383Z,22.10
2018-07-15T13:04:47.839Z,21.80
2018-07-15T13:07:16.322Z,21.60
2018-07-15T13:09:44.804Z,21.60
2018-07-15T13:12:13.298Z,21.50
2018-07-15T13:14:41.753Z,21.50
2018-07-15T13:17:10.255Z,21.30
2018-07-15T13:19:38.803Z,20.90
2018-07-15T13:22:07.771Z,20.90
2018-07-15T13:24:36.235Z,21.00
2018-07-15T13:27:04.765Z,21.20
2018-07-15T13:29:33.261Z,21.30
2018-07-15T13:32:02.029Z,21.50
2018-07-15T13:34:30.594Z,21.80
2018-07-15T13:36:59.183Z,22.00
2018-07-15T13:39:27.665Z,22.30
2018-07-15T13:41:56.182Z,22.70
2018-07-15T13:46:53.679Z,23.10
2018-07-15T13:51:50.744Z,23.70
2018-07-15T13:54:19.236Z,23.90
2018-07-15T13:56:47.664Z,24.20
2018-07-15T13:59:16.143Z,24.30
2018-07-15T14:01:44.634Z,24.50
2018-07-15T14:04:13.727Z,24.70
2018-07-15T14:06:42.902Z,24.90
2018-07-15T14:09:11.959Z,25.10
2018-07-15T14:11:40.949Z,25.20
2018-07-15T14:14:09.984Z,25.20
2018-07-15T14:16:38.983Z,25.10
2018-07-15T14:19:08.383Z,25.10
2018-07-15T14:21:37.428Z,25.20
2018-07-15T14:24:06.444Z,25.20
2018-07-15T14:26:36.147Z,25.20
2018-07-15T14:29:05.340Z,25.30
2018-07-15T14:31:34.412Z,25.50
2018-07-15T14:34:03.757Z,25.80
2018-07-15T14:36:32.808Z,25.80
2018-07-15T14:39:02.338Z,25.90
2018-07-15T14:41:31.380Z,26.00
2018-07-15T14:44:00.440Z,25.90
2018-07-15T14:46:31.570Z,25.70
2018-07-15T14:49:01.268Z,25.40
2018-07-15T14:51:30.621Z,25.20
2018-07-15T14:53:59.672Z,25.30
2018-07-15T14:56:28.648Z,25.40
2018-07-15T14:58:57.758Z,25.60
2018-07-15T15:01:26.808Z,25.70
2018-07-15T15:03:55.830Z,25.60
2018-07-15T15:06:25.017Z,25.60
2018-07-15T15:08:54.039Z,25.70
2018-07-15T15:11:23.241Z,25.60
2018-07-15T15:13:52.260Z,25.40
2018-07-15T15:18:50.046Z,25.60
2018-07-15T15:21:19.084Z,25.50
2018-07-15T15:23:48.166Z,25.30
2018-07-15T15:26:17.341Z,25.20
2018-07-15T15:28:46.328Z,25.30
2018-07-15T15:31:15.335Z,25.40
2018-07-15T15:33:44.717Z,25.60
2018-07-15T15:36:13.876Z,25.80
2018-07-15T15:38:42.846Z,25.90
2018-07-15T15:41:12.216Z,26.00
2018-07-15T15:43:41.242Z,26.10
2018-07-15T15:46:10.264Z,26.20
2018-07-15T15:48:39.245Z,26.10
2018-07-15T15:51:08.781Z,26.00
2018-07-15T15:53:37.756Z,25.90
2018-07-15T15:56:06.807Z,25.70
2018-07-15T15:58:35.801Z,25.70
2018-07-15T16:01:05.211Z,25.80
2018-07-15T16:03:34.207Z,25.80
2018-07-15T16:06:03.588Z,25.80
2018-07-15T16:08:32.596Z,25.70
2018-07-15T16:11:02.005Z,25.80
2018-07-15T16:13:31.018Z,25.80
2018-07-15T16:16:00.387Z,25.90
2018-07-15T16:18:29.442Z,26.00
2018-07-15T16:20:58.492Z,26.00
2018-07-15T16:23:27.489Z,26.00
2018-07-15T16:25:56.696Z,26.00
2018-07-15T16:28:25.675Z,26.00
2018-07-15T16:30:55.044Z,26.00
2018-07-15T16:33:24.099Z,25.90
2018-07-15T16:43:19.551Z,25.40
2018-07-15T16:45:48.576Z,25.30
2018-07-15T16:48:17.551Z,25.30
2018-07-15T16:50:46.586Z,25.40
2018-07-15T16:53:15.555Z,25.40
2018-07-15T16:55:44.642Z,25.40
2018-07-15T16:58:13.667Z,25.40
2018-07-15T17:00:42.719Z,25.30
2018-07-15T17:03:11.733Z,25.30
2018-07-15T17:05:40.911Z,25.40
2018-07-15T17:08:09.955Z,25.40
2018-07-15T17:10:39.026Z,25.40
2018-07-15T17:13:08.026Z,25.30
2018-07-15T17:15:37.045Z,25.30
2018-07-15T17:18:06.132Z,25.40
2018-07-15T17:20:35.160Z,25.40
2018-07-15T17:23:04.341Z,25.40
2018-07-15T17:25:33.331Z,25.50
2018-07-15T17:28:02.453Z,25.40
2018-07-15T17:30:31.439Z,25.40
2018-07-15T17:33:00.460Z,25.40
2018-07-15T17:35:29.463Z,25.40
2018-07-15T17:37:58.491Z,25.30
2018-07-15T17:40:27.791Z,25.40
2018-07-15T17:42:56.935Z,25.30
2018-07-15T17:45:25.916Z,25.30
2018-07-15T17:47:54.939Z,25.20
2018-07-15T17:50:23.918Z,25.20
2018-07-15T17:52:52.938Z,25.20
2018-07-15T17:55:21.950Z,25.20
2018-07-15T17:57:51.135Z,25.20
2018-07-15T18:00:20.119Z,25.10
2018-07-15T18:02:49.139Z,25.10
2018-07-15T18:05:18.125Z,25.10
2018-07-15T18:07:47.154Z,25.00
2018-07-15T18:10:16.533Z,24.90
2018-07-15T18:12:45.571Z,24.80
2018-07-15T18:15:14.556Z,24.70
2018-07-15T18:17:43.632Z,24.50
2018-07-15T18:20:12.668Z,24.50
2018-07-15T18:22:41.732Z,24.40
2018-07-15T18:25:10.760Z,24.30
2018-07-15T18:27:39.254Z,24.10
2018-07-15T18:30:08.256Z,23.80
2018-07-15T18:32:36.767Z,23.60
2018-07-15T18:35:05.256Z,23.50
2018-07-15T18:37:33.741Z,23.30
2018-07-15T18:40:02.232Z,23.30
2018-07-15T18:42:30.813Z,23.20
2018-07-15T18:44:59.436Z,23.20
2018-07-15T18:47:28.113Z,23.10
2018-07-15T18:49:56.546Z,22.90
2018-07-15T18:52:25.094Z,22.80
2018-07-15T18:54:53.527Z,22.60
2018-07-15T18:57:22.021Z,22.50
2018-07-15T18:59:50.499Z,22.40
2018-07-15T19:02:19.005Z,22.40
2018-07-15T19:04:47.652Z,22.40
2018-07-15T19:07:16.120Z,22.30
2018-07-15T19:09:44.631Z,22.30
2018-07-15T19:12:13.118Z,22.20
2018-07-15T19:14:41.592Z,22.10
2018-07-15T19:17:10.083Z,22.10
2018-07-15T19:19:38.611Z,22.00
2018-07-15T19:22:07.064Z,21.90
2018-07-15T19:24:35.932Z,21.90
2018-07-15T19:27:04.949Z,21.80
2018-07-15T19:29:34.483Z,21.80
2018-07-15T19:32:02.984Z,21.70
2018-07-15T19:34:31.471Z,21.70
2018-07-15T19:37:01.301Z,21.70
2018-07-15T19:39:29.789Z,21.60
2018-07-15T19:41:59.294Z,21.50
2018-07-15T19:44:28.048Z,21.50
2018-07-15T19:46:56.554Z,21.40
2018-07-15T19:49:25.264Z,21.30
2018-07-15T19:51:54.090Z,21.20
2018-07-15T19:54:22.931Z,21.10
2018-07-15T19:56:52.413Z,21.00
2018-07-15T19:59:21.236Z,20.90
2018-07-15T20:01:51.025Z,20.80
2018-07-15T20:04:19.615Z,20.70
2018-07-15T20:06:48.231Z,20.50
2018-07-15T20:09:16.948Z,20.30
2018-07-15T20:11:45.903Z,20.20
2018-07-15T20:14:14.492Z,20.10
2018-07-15T20:16:43.322Z,20.10
2018-07-15T20:19:11.901Z,20.10
2018-07-15T20:21:40.925Z,20.10
2018-07-15T20:24:09.744Z,20.00
2018-07-15T20:26:38.361Z,19.90
2018-07-15T20:29:06.860Z,19.70
2018-07-15T20:31:35.647Z,19.60
2018-07-15T20:34:04.591Z,19.40
2018-07-15T20:36:33.613Z,19.40
2018-07-15T20:39:03.209Z,19.40
2018-07-15T20:41:31.726Z,19.30
2018-07-15T20:44:00.599Z,19.20
2018-07-15T20:46:29.055Z,19.20
2018-07-15T20:48:57.549Z,19.10
2018-07-15T20:51:26.000Z,19.00
2018-07-15T20:53:54.506Z,18.90
2018-07-15T20:56:23.252Z,18.70
2018-07-15T20:58:51.839Z,18.60
2018-07-15T21:01:20.271Z,18.50
2018-07-15T21:03:48.744Z,18.50
2018-07-15T21:06:18.319Z,18.50
2018-07-15T21:08:47.208Z,18.60
2018-07-15T21:11:15.647Z,18.50
2018-07-15T21:13:44.139Z,18.50
2018-07-15T21:16:13.026Z,18.30
2018-07-15T21:18:41.508Z,18.30
2018-07-15T21:21:10.006Z,18.30
2018-07-15T21:23:38.492Z,18.30
2018-07-15T21:26:06.983Z,18.40
2018-07-15T21:28:35.418Z,18.30
2018-07-15T21:31:04.327Z,18.30
2018-07-15T21:33:32.814Z,18.30
2018-07-15T21:36:01.306Z,18.30
2018-07-15T21:38:29.788Z,18.20
2018-07-15T21:40:58.283Z,18.20
2018-07-15T21:43:26.755Z,18.10
2018-07-15T21:45:55.300Z,18.10
2018-07-15T21:48:23.748Z,18.10
2018-07-15T21:50:52.243Z,18.00
2018-07-15T21:53:20.674Z,17.90
2018-07-15T21:55:49.241Z,17.80
2018-07-15T21:58:17.719Z,17.70
2018-07-15T22:00:46.211Z,17.50
2018-07-15T22:03:14.661Z,17.40
2018-07-15T22:05:43.182Z,17.40
2018-07-15T22:10:46.494Z,17.10
2018-07-15T22:13:15.013Z,17.00
2018-07-15T22:15:43.550Z,16.90
2018-07-15T22:18:12.052Z,16.80
2018-07-15T22:20:40.553Z,16.80
2018-07-15T22:23:09.029Z,16.70
2018-07-15T22:25:37.572Z,16.70
2018-07-15T22:28:06.132Z,16.70
2018-07-15T22:30:34.756Z,16.70
2018-07-15T22:33:03.224Z,16.70
2018-07-15T22:35:32.048Z,16.70
2018-07-15T22:38:00.532Z,16.60
2018-07-15T22:40:29.016Z,16.60
2018-07-15T22:42:57.479Z,16.60
2018-07-15T22:45:26.181Z,16.60
2018-07-15T22:47:54.631Z,16.60
2018-07-15T22:50:23.165Z,16.60
2018-07-15T22:52:51.671Z,16.70
2018-07-15T22:55:20.250Z,16.70
2018-07-15T22:57:48.738Z,16.60
2018-07-15T23:00:17.320Z,16.60
2018-07-15T23:02:45.768Z,16.50
2018-07-15T23:05:37.823Z,16.50
2018-07-15T23:08:07.354Z,16.50
2018-07-15T23:13:06.736Z,16.50
2018-07-15T23:15:35.650Z,16.50
2018-07-15T23:18:04.255Z,16.50
2018-07-15T23:20:33.432Z,16.40
2018-07-15T23:23:02.760Z,16.30
2018-07-15T23:25:31.866Z,16.30
2018-07-15T23:28:01.457Z,16.30
2018-07-15T23:30:30.904Z,16.20
2018-07-15T23:32:59.530Z,16.20
2018-07-15T23:35:27.995Z,16.20
2018-07-15T23:37:56.643Z,16.10
2018-07-15T23:40:25.176Z,16.10
2018-07-15T23:42:54.549Z,16.10
2018-07-15T23:45:24.379Z,16.00
2018-07-15T23:50:21.200Z,15.90
2018-07-15T23:52:49.763Z,15.90
2018-07-15T23:55:18.640Z,16.00
2018-07-15T23:57:47.638Z,16.00
